sensor_id;sensor_type;location;lat;lon;timestamp;temperature;humidity
44305;DHT22;30019;50.576;8.568;2022-08-03T00:01:27;19.00;99.90
44305;DHT22;30019;50.576;8.568;2022-08-03T00:03:52;18.90;99.90
44305;DHT22;30019;50.576;8.568;2022-08-03T00:06:18;18.90;99.90
44305;DHT22;30019;50.576;8.568;2022-08-03T00:08:44;18.90;99.90
44305;DHT22;30019;50.576;8.568;2022-08-03T00:11:09;18.90;99.90
44305;DHT22;30019;50.576;8.568;2022-08-03T00:13:35;18.80;99.90
44305;DHT22;30019;50.576;8.568;2022-08-03T00:16:01;18.70;99.90
44305;DHT22;30019;50.576;8.568;2022-08-03T00:18:26;18.70;99.90
44305;DHT22;30019;50.576;8.568;2022-08-03T00:20:52;18.70;99.90
44305;DHT22;30019;50.576;8.568;2022-08-03T00:23:17;18.70;99.90
44305;DHT22;30019;50.576;8.568;2022-08-03T00:25:43;18.60;99.90
44305;DHT22;30019;50.576;8.568;2022-08-03T00:28:09;18.50;99.90
44305;DHT22;30019;50.576;8.568;2022-08-03T00:30:35;18.50;99.90
44305;DHT22;30019;50.576;8.568;2022-08-03T00:33:01;18.50;99.90
44305;DHT22;30019;50.576;8.568;2022-08-03T00:35:27;18.50;99.90
44305;DHT22;30019;50.576;8.568;2022-08-03T00:37:53;18.40;99.90
44305;DHT22;30019;50.576;8.568;2022-08-03T00:40:19;18.30;99.90
44305;DHT22;30019;50.576;8.568;2022-08-03T00:42:55;18.10;99.90
44305;DHT22;30019;50.576;8.568;2022-08-03T00:45:23;18.10;99.90
44305;DHT22;30019;50.576;8.568;2022-08-03T00:47:50;18.10;99.90
44305;DHT22;30019;50.576;8.568;2022-08-03T00:50:17;18.10;99.90
44305;DHT22;30019;50.576;8.568;2022-08-03T00:52:43;18.00;99.90
44305;DHT22;30019;50.576;8.568;2022-08-03T00:55:10;18.00;99.90
44305;DHT22;30019;50.576;8.568;2022-08-03T00:57:36;18.10;99.90
44305;DHT22;30019;50.576;8.568;2022-08-03T01:00:04;18.20;99.90
44305;DHT22;30019;50.576;8.568;2022-08-03T01:02:30;18.20;99.90
44305;DHT22;30019;50.576;8.568;2022-08-03T01:04:56;18.10;99.90
44305;DHT22;30019;50.576;8.568;2022-08-03T01:10:41;18.00;99.90
44305;DHT22;30019;50.576;8.568;2022-08-03T01:16:31;18.00;99.90
44305;DHT22;30019;50.576;8.568;2022-08-03T01:19:23;17.90;99.90
44305;DHT22;30019;50.576;8.568;2022-08-03T01:27:56;17.60;99.90
44305;DHT22;30019;50.576;8.568;2022-08-03T01:30:32;17.60;99.90
44305;DHT22;30019;50.576;8.568;2022-08-03T01:33:01;17.50;99.90
44305;DHT22;30019;50.576;8.568;2022-08-03T01:35:47;17.50;99.90
44305;DHT22;30019;50.576;8.568;2022-08-03T01:38:22;17.40;99.90
44305;DHT22;30019;50.576;8.568;2022-08-03T01:40:49;17.40;99.90
44305;DHT22;30019;50.576;8.568;2022-08-03T01:43:22;17.40;99.90
44305;DHT22;30019;50.576;8.568;2022-08-03T01:45:49;17.40;99.90
44305;DHT22;30019;50.576;8.568;2022-08-03T01:48:16;17.30;99.90
44305;DHT22;30019;50.576;8.568;2022-08-03T01:50:44;17.30;99.90
44305;DHT22;30019;50.576;8.568;2022-08-03T01:53:13;17.30;99.90
44305;DHT22;30019;50.576;8.568;2022-08-03T01:55:40;17.30;99.90
44305;DHT22;30019;50.576;8.568;2022-08-03T01:58:07;17.10;99.90
44305;DHT22;30019;50.576;8.568;2022-08-03T02:00:36;17.10;99.90
44305;DHT22;30019;50.576;8.568;2022-08-03T02:03:06;17.20;99.90
44305;DHT22;30019;50.576;8.568;2022-08-03T02:05:33;17.30;99.90
44305;DHT22;30019;50.576;8.568;2022-08-03T02:08:00;17.30;99.90
44305;DHT22;30019;50.576;8.568;2022-08-03T02:10:28;17.20;99.90
44305;DHT22;30019;50.576;8.568;2022-08-03T02:12:57;17.20;99.90
44305;DHT22;30019;50.576;8.568;2022-08-03T02:15:23;17.20;99.90
44305;DHT22;30019;50.576;8.568;2022-08-03T02:17:49;17.10;99.90
44305;DHT22;30019;50.576;8.568;2022-08-03T02:20:16;17.00;99.90
44305;DHT22;30019;50.576;8.568;2022-08-03T02:22:43;17.00;99.90
44305;DHT22;30019;50.576;8.568;2022-08-03T02:25:12;17.00;99.90
44305;DHT22;30019;50.576;8.568;2022-08-03T02:27:42;16.90;99.90
44305;DHT22;30019;50.576;8.568;2022-08-03T02:30:10;16.90;99.90
44305;DHT22;30019;50.576;8.568;2022-08-03T02:32:43;17.00;99.90
44305;DHT22;30019;50.576;8.568;2022-08-03T02:35:12;17.00;99.90
44305;DHT22;30019;50.576;8.568;2022-08-03T02:37:42;17.00;99.90
44305;DHT22;30019;50.576;8.568;2022-08-03T02:40:09;17.00;99.90
44305;DHT22;30019;50.576;8.568;2022-08-03T02:42:38;16.80;99.90
44305;DHT22;30019;50.576;8.568;2022-08-03T02:45:06;16.70;99.90
44305;DHT22;30019;50.576;8.568;2022-08-03T02:47:35;16.70;99.90
44305;DHT22;30019;50.576;8.568;2022-08-03T02:50:02;16.70;99.90
44305;DHT22;30019;50.576;8.568;2022-08-03T02:52:29;16.50;99.90
44305;DHT22;30019;50.576;8.568;2022-08-03T02:54:59;16.50;99.90
44305;DHT22;30019;50.576;8.568;2022-08-03T02:57:27;16.40;99.90
44305;DHT22;30019;50.576;8.568;2022-08-03T02:59:54;16.40;99.90
44305;DHT22;30019;50.576;8.568;2022-08-03T03:02:21;16.60;99.90
44305;DHT22;30019;50.576;8.568;2022-08-03T03:04:50;16.70;99.90
44305;DHT22;30019;50.576;8.568;2022-08-03T03:07:16;16.70;99.90
44305;DHT22;30019;50.576;8.568;2022-08-03T03:09:42;16.70;99.90
44305;DHT22;30019;50.576;8.568;2022-08-03T03:12:10;16.70;99.90
44305;DHT22;30019;50.576;8.568;2022-08-03T03:14:37;16.60;99.90
44305;DHT22;30019;50.576;8.568;2022-08-03T03:17:05;16.50;99.90
44305;DHT22;30019;50.576;8.568;2022-08-03T03:19:32;16.40;99.90
44305;DHT22;30019;50.576;8.568;2022-08-03T03:22:00;16.30;99.90
44305;DHT22;30019;50.576;8.568;2022-08-03T03:24:28;16.20;99.90
44305;DHT22;30019;50.576;8.568;2022-08-03T03:26:54;16.20;99.90
44305;DHT22;30019;50.576;8.568;2022-08-03T03:29:20;16.20;99.90
44305;DHT22;30019;50.576;8.568;2022-08-03T03:31:46;16.20;99.90
44305;DHT22;30019;50.576;8.568;2022-08-03T03:34:12;16.20;99.90
44305;DHT22;30019;50.576;8.568;2022-08-03T03:36:38;16.10;99.90
44305;DHT22;30019;50.576;8.568;2022-08-03T03:39:04;16.10;99.90
44305;DHT22;30019;50.576;8.568;2022-08-03T03:41:29;16.10;99.90
44305;DHT22;30019;50.576;8.568;2022-08-03T03:43:55;16.00;99.90
44305;DHT22;30019;50.576;8.568;2022-08-03T03:46:21;16.10;99.90
44305;DHT22;30019;50.576;8.568;2022-08-03T03:48:47;16.00;99.90
44305;DHT22;30019;50.576;8.568;2022-08-03T03:51:12;15.90;99.90
44305;DHT22;30019;50.576;8.568;2022-08-03T03:53:39;16.00;99.90
44305;DHT22;30019;50.576;8.568;2022-08-03T03:56:05;15.80;99.90
44305;DHT22;30019;50.576;8.568;2022-08-03T03:58:31;16.00;99.90
44305;DHT22;30019;50.576;8.568;2022-08-03T04:00:57;16.10;99.90
44305;DHT22;30019;50.576;8.568;2022-08-03T04:03:23;16.10;99.90
44305;DHT22;30019;50.576;8.568;2022-08-03T04:05:48;16.00;99.90
44305;DHT22;30019;50.576;8.568;2022-08-03T04:08:33;15.90;99.90
44305;DHT22;30019;50.576;8.568;2022-08-03T04:11:37;15.80;99.90
44305;DHT22;30019;50.576;8.568;2022-08-03T04:14:13;15.80;99.90
44305;DHT22;30019;50.576;8.568;2022-08-03T04:16:43;15.80;99.90
44305;DHT22;30019;50.576;8.568;2022-08-03T04:19:18;15.80;99.90
44305;DHT22;30019;50.576;8.568;2022-08-03T04:21:47;15.80;99.90
44305;DHT22;30019;50.576;8.568;2022-08-03T04:24:15;16.00;99.90
44305;DHT22;30019;50.576;8.568;2022-08-03T04:26:43;16.20;99.90
44305;DHT22;30019;50.576;8.568;2022-08-03T04:29:10;16.10;99.90
44305;DHT22;30019;50.576;8.568;2022-08-03T04:31:39;16.00;99.90
44305;DHT22;30019;50.576;8.568;2022-08-03T04:34:06;16.00;99.90
44305;DHT22;30019;50.576;8.568;2022-08-03T04:36:41;16.10;99.90
44305;DHT22;30019;50.576;8.568;2022-08-03T04:41:56;16.00;99.90
44305;DHT22;30019;50.576;8.568;2022-08-03T04:44:23;16.00;99.90
44305;DHT22;30019;50.576;8.568;2022-08-03T04:46:49;16.10;99.90
44305;DHT22;30019;50.576;8.568;2022-08-03T04:51:43;16.20;99.90
44305;DHT22;30019;50.576;8.568;2022-08-03T04:54:12;16.30;99.90
44305;DHT22;30019;50.576;8.568;2022-08-03T04:56:44;16.20;99.90
44305;DHT22;30019;50.576;8.568;2022-08-03T04:59:10;16.20;99.90
44305;DHT22;30019;50.576;8.568;2022-08-03T05:01:36;16.20;99.90
44305;DHT22;30019;50.576;8.568;2022-08-03T05:04:02;16.30;99.90
44305;DHT22;30019;50.576;8.568;2022-08-03T05:06:28;16.30;99.90
44305;DHT22;30019;50.576;8.568;2022-08-03T05:08:54;16.30;99.90
44305;DHT22;30019;50.576;8.568;2022-08-03T05:11:20;16.20;99.90
44305;DHT22;30019;50.576;8.568;2022-08-03T05:13:46;16.30;99.90
44305;DHT22;30019;50.576;8.568;2022-08-03T05:16:13;16.50;99.90
44305;DHT22;30019;50.576;8.568;2022-08-03T05:18:41;16.60;99.90
44305;DHT22;30019;50.576;8.568;2022-08-03T05:21:11;16.70;99.90
44305;DHT22;30019;50.576;8.568;2022-08-03T05:26:04;16.70;99.90
44305;DHT22;30019;50.576;8.568;2022-08-03T05:28:30;16.80;99.90
44305;DHT22;30019;50.576;8.568;2022-08-03T05:30:56;16.80;99.90
44305;DHT22;30019;50.576;8.568;2022-08-03T05:33:21;17.00;99.90
44305;DHT22;30019;50.576;8.568;2022-08-03T05:35:47;17.00;99.90
44305;DHT22;30019;50.576;8.568;2022-08-03T05:38:13;17.00;99.90
44305;DHT22;30019;50.576;8.568;2022-08-03T05:40:38;17.10;99.90
44305;DHT22;30019;50.576;8.568;2022-08-03T05:43:04;17.50;99.90
44305;DHT22;30019;50.576;8.568;2022-08-03T05:45:29;17.20;99.90
44305;DHT22;30019;50.576;8.568;2022-08-03T05:47:55;17.30;99.90
44305;DHT22;30019;50.576;8.568;2022-08-03T05:50:20;17.40;99.90
44305;DHT22;30019;50.576;8.568;2022-08-03T05:52:46;17.30;99.90
44305;DHT22;30019;50.576;8.568;2022-08-03T05:55:12;17.50;99.90
44305;DHT22;30019;50.576;8.568;2022-08-03T05:57:39;17.60;99.90
44305;DHT22;30019;50.576;8.568;2022-08-03T06:00:07;17.80;99.90
44305;DHT22;30019;50.576;8.568;2022-08-03T06:02:33;17.90;99.90
44305;DHT22;30019;50.576;8.568;2022-08-03T06:04:58;18.10;99.90
44305;DHT22;30019;50.576;8.568;2022-08-03T06:07:24;17.90;99.90
44305;DHT22;30019;50.576;8.568;2022-08-03T06:09:50;17.90;99.90
44305;DHT22;30019;50.576;8.568;2022-08-03T06:12:16;18.00;99.90
44305;DHT22;30019;50.576;8.568;2022-08-03T06:14:41;18.20;99.90
44305;DHT22;30019;50.576;8.568;2022-08-03T06:17:07;18.40;99.90
44305;DHT22;30019;50.576;8.568;2022-08-03T06:19:32;18.40;99.90
44305;DHT22;30019;50.576;8.568;2022-08-03T06:21:58;18.40;99.90
44305;DHT22;30019;50.576;8.568;2022-08-03T06:24:23;18.20;99.90
44305;DHT22;30019;50.576;8.568;2022-08-03T06:26:49;19.20;99.90
44305;DHT22;30019;50.576;8.568;2022-08-03T06:29:15;19.10;99.90
44305;DHT22;30019;50.576;8.568;2022-08-03T06:31:40;19.10;99.90
44305;DHT22;30019;50.576;8.568;2022-08-03T06:34:06;19.40;99.90
44305;DHT22;30019;50.576;8.568;2022-08-03T06:36:32;19.60;99.90
44305;DHT22;30019;50.576;8.568;2022-08-03T06:38:58;19.70;99.90
44305;DHT22;30019;50.576;8.568;2022-08-03T06:43:50;19.80;99.90
44305;DHT22;30019;50.576;8.568;2022-08-03T06:46:15;19.90;99.90
44305;DHT22;30019;50.576;8.568;2022-08-03T06:48:41;19.90;99.90
44305;DHT22;30019;50.576;8.568;2022-08-03T06:51:07;20.90;99.90
44305;DHT22;30019;50.576;8.568;2022-08-03T06:53:32;20.20;99.90
44305;DHT22;30019;50.576;8.568;2022-08-03T06:55:58;20.40;99.90
44305;DHT22;30019;50.576;8.568;2022-08-03T06:58:24;20.00;99.90
44305;DHT22;30019;50.576;8.568;2022-08-03T07:00:49;20.50;99.90
44305;DHT22;30019;50.576;8.568;2022-08-03T07:03:15;20.60;99.90
44305;DHT22;30019;50.576;8.568;2022-08-03T07:05:41;20.70;99.90
44305;DHT22;30019;50.576;8.568;2022-08-03T07:08:08;20.80;99.90
44305;DHT22;30019;50.576;8.568;2022-08-03T07:10:34;20.90;99.90
44305;DHT22;30019;50.576;8.568;2022-08-03T07:12:59;21.00;99.90
44305;DHT22;30019;50.576;8.568;2022-08-03T07:15:25;21.50;99.90
44305;DHT22;30019;50.576;8.568;2022-08-03T07:17:50;21.20;99.90
44305;DHT22;30019;50.576;8.568;2022-08-03T07:20:16;21.40;99.90
44305;DHT22;30019;50.576;8.568;2022-08-03T07:22:45;21.50;99.90
44305;DHT22;30019;50.576;8.568;2022-08-03T07:25:11;21.70;99.90
44305;DHT22;30019;50.576;8.568;2022-08-03T07:27:37;21.80;99.90
44305;DHT22;30019;50.576;8.568;2022-08-03T07:30:05;21.80;99.90
44305;DHT22;30019;50.576;8.568;2022-08-03T07:32:31;22.00;99.90
44305;DHT22;30019;50.576;8.568;2022-08-03T07:34:56;22.10;99.90
44305;DHT22;30019;50.576;8.568;2022-08-03T07:37:22;22.10;99.90
44305;DHT22;30019;50.576;8.568;2022-08-03T07:39:47;22.20;99.90
44305;DHT22;30019;50.576;8.568;2022-08-03T07:42:14;22.40;99.90
44305;DHT22;30019;50.576;8.568;2022-08-03T07:44:39;22.60;99.90
44305;DHT22;30019;50.576;8.568;2022-08-03T07:47:05;22.80;99.90
44305;DHT22;30019;50.576;8.568;2022-08-03T07:49:31;23.00;99.90
44305;DHT22;30019;50.576;8.568;2022-08-03T07:51:56;22.50;99.90
44305;DHT22;30019;50.576;8.568;2022-08-03T07:54:41;23.50;99.90
44305;DHT22;30019;50.576;8.568;2022-08-03T07:57:08;24.10;99.90
44305;DHT22;30019;50.576;8.568;2022-08-03T08:02:02;23.80;99.90
44305;DHT22;30019;50.576;8.568;2022-08-03T08:04:28;23.70;99.90
44305;DHT22;30019;50.576;8.568;2022-08-03T08:06:53;23.90;99.90
44305;DHT22;30019;50.576;8.568;2022-08-03T08:09:19;24.10;99.90
44305;DHT22;30019;50.576;8.568;2022-08-03T08:11:44;24.30;99.90
44305;DHT22;30019;50.576;8.568;2022-08-03T08:14:10;24.50;99.90
44305;DHT22;30019;50.576;8.568;2022-08-03T08:16:36;24.40;99.90
44305;DHT22;30019;50.576;8.568;2022-08-03T08:19:03;24.60;99.90
44305;DHT22;30019;50.576;8.568;2022-08-03T08:21:29;24.60;99.90
44305;DHT22;30019;50.576;8.568;2022-08-03T08:48:22;31.20;77.00
44305;DHT22;30019;50.576;8.568;2022-08-03T08:50:52;31.10;77.80
44305;DHT22;30019;50.576;8.568;2022-08-03T08:53:18;31.20;78.30
44305;DHT22;30019;50.576;8.568;2022-08-03T08:55:46;31.40;78.80
44305;DHT22;30019;50.576;8.568;2022-08-03T08:58:12;32.00;80.40
44305;DHT22;30019;50.576;8.568;2022-08-03T09:00:40;32.00;79.80
44305;DHT22;30019;50.576;8.568;2022-08-03T09:03:10;31.60;84.20
44305;DHT22;30019;50.576;8.568;2022-08-03T09:05:36;32.00;87.10
44305;DHT22;30019;50.576;8.568;2022-08-03T09:08:04;32.10;88.50
44305;DHT22;30019;50.576;8.568;2022-08-03T09:10:30;32.20;91.80
44305;DHT22;30019;50.576;8.568;2022-08-03T09:12:56;32.80;95.80
44305;DHT22;30019;50.576;8.568;2022-08-03T09:22:58;30.60;67.70
44305;DHT22;30019;50.576;8.568;2022-08-03T09:25:28;30.60;71.60
44305;DHT22;30019;50.576;8.568;2022-08-03T09:28:09;30.10;73.10
44305;DHT22;30019;50.576;8.568;2022-08-03T09:30:37;29.80;75.10
44305;DHT22;30019;50.576;8.568;2022-08-03T09:33:10;30.10;75.00
44305;DHT22;30019;50.576;8.568;2022-08-03T09:35:41;29.90;75.50
44305;DHT22;30019;50.576;8.568;2022-08-03T09:38:11;30.10;76.80
44305;DHT22;30019;50.576;8.568;2022-08-03T09:40:37;30.40;78.70
44305;DHT22;30019;50.576;8.568;2022-08-03T09:43:03;30.60;77.10
44305;DHT22;30019;50.576;8.568;2022-08-03T09:45:28;30.50;75.90
44305;DHT22;30019;50.576;8.568;2022-08-03T09:47:54;30.60;77.70
44305;DHT22;30019;50.576;8.568;2022-08-03T09:50:22;31.10;80.50
44305;DHT22;30019;50.576;8.568;2022-08-03T09:52:47;31.10;78.00
44305;DHT22;30019;50.576;8.568;2022-08-03T09:55:16;30.90;85.40
44305;DHT22;30019;50.576;8.568;2022-08-03T09:57:44;31.10;85.80
44305;DHT22;30019;50.576;8.568;2022-08-03T10:00:12;31.00;87.40
44305;DHT22;30019;50.576;8.568;2022-08-03T10:02:40;32.00;88.20
44305;DHT22;30019;50.576;8.568;2022-08-03T10:05:07;33.20;90.20
44305;DHT22;30019;50.576;8.568;2022-08-03T10:07:44;34.50;90.50
44305;DHT22;30019;50.576;8.568;2022-08-03T10:15:07;36.10;90.20
44305;DHT22;30019;50.576;8.568;2022-08-03T10:20:00;37.10;47.80
44305;DHT22;30019;50.576;8.568;2022-08-03T10:22:27;37.90;46.90
44305;DHT22;30019;50.576;8.568;2022-08-03T10:24:59;38.10;46.20
44305;DHT22;30019;50.576;8.568;2022-08-03T10:27:31;38.40;46.10
44305;DHT22;30019;50.576;8.568;2022-08-03T10:30:02;39.50;45.00
44305;DHT22;30019;50.576;8.568;2022-08-03T10:32:33;39.90;44.20
44305;DHT22;30019;50.576;8.568;2022-08-03T10:35:20;39.80;45.60
44305;DHT22;30019;50.576;8.568;2022-08-03T10:38:07;40.20;44.20
44305;DHT22;30019;50.576;8.568;2022-08-03T10:40:34;40.40;44.50
44305;DHT22;30019;50.576;8.568;2022-08-03T10:43:18;41.00;44.80
44305;DHT22;30019;50.576;8.568;2022-08-03T10:45:44;40.70;45.00
44305;DHT22;30019;50.576;8.568;2022-08-03T10:48:11;39.30;46.20
44305;DHT22;30019;50.576;8.568;2022-08-03T10:50:37;38.20;48.60
44305;DHT22;30019;50.576;8.568;2022-08-03T10:53:05;39.20;48.00
44305;DHT22;30019;50.576;8.568;2022-08-03T10:55:42;39.50;46.90
44305;DHT22;30019;50.576;8.568;2022-08-03T11:01:01;40.00;45.30
44305;DHT22;30019;50.576;8.568;2022-08-03T11:03:27;38.70;47.50
44305;DHT22;30019;50.576;8.568;2022-08-03T11:05:53;38.50;49.90
44305;DHT22;30019;50.576;8.568;2022-08-03T11:08:38;37.50;50.10
44305;DHT22;30019;50.576;8.568;2022-08-03T11:16:22;35.60;54.10
44305;DHT22;30019;50.576;8.568;2022-08-03T11:19:02;36.40;54.40
44305;DHT22;30019;50.576;8.568;2022-08-03T11:27:19;37.20;51.40
44305;DHT22;30019;50.576;8.568;2022-08-03T11:33:01;37.20;53.80
44305;DHT22;30019;50.576;8.568;2022-08-03T11:35:30;38.80;52.10
44305;DHT22;30019;50.576;8.568;2022-08-03T11:40:51;38.80;51.90
44305;DHT22;30019;50.576;8.568;2022-08-03T11:46:11;38.80;52.10
44305;DHT22;30019;50.576;8.568;2022-08-03T11:48:47;38.90;51.10
44305;DHT22;30019;50.576;8.568;2022-08-03T11:51:24;38.40;53.70
44305;DHT22;30019;50.576;8.568;2022-08-03T11:53:55;39.10;53.80
44305;DHT22;30019;50.576;8.568;2022-08-03T11:56:21;39.40;52.30
44305;DHT22;30019;50.576;8.568;2022-08-03T11:58:48;39.70;52.40
44305;DHT22;30019;50.576;8.568;2022-08-03T12:01:14;39.80;56.20
44305;DHT22;30019;50.576;8.568;2022-08-03T12:03:43;39.60;57.70
44305;DHT22;30019;50.576;8.568;2022-08-03T12:06:13;39.50;62.50
44305;DHT22;30019;50.576;8.568;2022-08-03T12:08:40;39.20;64.40
44305;DHT22;30019;50.576;8.568;2022-08-03T12:11:08;39.00;58.70
44305;DHT22;30019;50.576;8.568;2022-08-03T12:13:43;38.50;60.70
44305;DHT22;30019;50.576;8.568;2022-08-03T12:16:10;38.20;62.10
44305;DHT22;30019;50.576;8.568;2022-08-03T12:18:41;37.90;60.10
44305;DHT22;30019;50.576;8.568;2022-08-03T12:21:10;37.20;61.00
44305;DHT22;30019;50.576;8.568;2022-08-03T12:23:38;36.80;64.70
44305;DHT22;30019;50.576;8.568;2022-08-03T12:26:05;36.90;65.60
44305;DHT22;30019;50.576;8.568;2022-08-03T12:28:32;36.40;64.60
44305;DHT22;30019;50.576;8.568;2022-08-03T12:31:03;36.40;58.40
44305;DHT22;30019;50.576;8.568;2022-08-03T12:33:30;35.90;68.00
44305;DHT22;30019;50.576;8.568;2022-08-03T12:38:31;35.10;71.80
44305;DHT22;30019;50.576;8.568;2022-08-03T12:40:58;35.50;74.00
44305;DHT22;30019;50.576;8.568;2022-08-03T12:43:25;35.90;72.40
44305;DHT22;30019;50.576;8.568;2022-08-03T12:45:50;36.00;74.40
44305;DHT22;30019;50.576;8.568;2022-08-03T12:48:16;36.20;74.80
44305;DHT22;30019;50.576;8.568;2022-08-03T12:50:41;36.80;78.10
44305;DHT22;30019;50.576;8.568;2022-08-03T12:53:08;37.10;83.40
44305;DHT22;30019;50.576;8.568;2022-08-03T12:55:35;37.00;85.20
44305;DHT22;30019;50.576;8.568;2022-08-03T12:58:05;36.30;82.90
44305;DHT22;30019;50.576;8.568;2022-08-03T13:03:03;35.00;91.30
44305;DHT22;30019;50.576;8.568;2022-08-03T13:05:30;34.80;88.30
44305;DHT22;30019;50.576;8.568;2022-08-03T13:07:56;34.20;90.50
44305;DHT22;30019;50.576;8.568;2022-08-03T13:10:32;34.60;91.00
44305;DHT22;30019;50.576;8.568;2022-08-03T13:12:59;35.00;88.50
44305;DHT22;30019;50.576;8.568;2022-08-03T13:15:27;35.60;85.20
44305;DHT22;30019;50.576;8.568;2022-08-03T13:17:55;36.10;86.70
44305;DHT22;30019;50.576;8.568;2022-08-03T13:22:47;36.70;88.80
44305;DHT22;30019;50.576;8.568;2022-08-03T13:25:13;36.90;90.00
44305;DHT22;30019;50.576;8.568;2022-08-03T13:27:39;37.00;89.10
44305;DHT22;30019;50.576;8.568;2022-08-03T13:30:05;36.80;88.30
44305;DHT22;30019;50.576;8.568;2022-08-03T13:32:33;36.70;80.90
44305;DHT22;30019;50.576;8.568;2022-08-03T13:34:59;36.70;83.40
44305;DHT22;30019;50.576;8.568;2022-08-03T13:37:27;36.60;84.40
44305;DHT22;30019;50.576;8.568;2022-08-03T13:39:52;36.50;81.40
44305;DHT22;30019;50.576;8.568;2022-08-03T13:42:18;36.10;40.90
44305;DHT22;30019;50.576;8.568;2022-08-03T13:44:43;36.10;42.70
44305;DHT22;30019;50.576;8.568;2022-08-03T13:47:09;36.00;42.20
44305;DHT22;30019;50.576;8.568;2022-08-03T13:49:35;35.90;41.90
44305;DHT22;30019;50.576;8.568;2022-08-03T13:52:00;35.80;42.60
44305;DHT22;30019;50.576;8.568;2022-08-03T13:54:26;35.90;43.70
44305;DHT22;30019;50.576;8.568;2022-08-03T13:56:52;35.90;43.10
44305;DHT22;30019;50.576;8.568;2022-08-03T13:59:21;35.80;42.00
44305;DHT22;30019;50.576;8.568;2022-08-03T14:01:47;35.70;43.70
44305;DHT22;30019;50.576;8.568;2022-08-03T14:04:13;35.80;42.80
44305;DHT22;30019;50.576;8.568;2022-08-03T14:06:39;35.60;43.60
44305;DHT22;30019;50.576;8.568;2022-08-03T14:09:05;35.60;43.70
44305;DHT22;30019;50.576;8.568;2022-08-03T14:11:30;35.70;43.20
44305;DHT22;30019;50.576;8.568;2022-08-03T14:13:56;35.10;44.40
44305;DHT22;30019;50.576;8.568;2022-08-03T14:16:21;35.50;44.60
44305;DHT22;30019;50.576;8.568;2022-08-03T14:18:47;35.90;44.20
44305;DHT22;30019;50.576;8.568;2022-08-03T14:21:13;36.40;44.70
44305;DHT22;30019;50.576;8.568;2022-08-03T14:23:38;36.90;42.90
44305;DHT22;30019;50.576;8.568;2022-08-03T14:26:05;36.70;42.90
44305;DHT22;30019;50.576;8.568;2022-08-03T14:28:31;36.40;42.10
44305;DHT22;30019;50.576;8.568;2022-08-03T14:30:57;36.60;43.10
44305;DHT22;30019;50.576;8.568;2022-08-03T14:33:24;36.90;42.00
44305;DHT22;30019;50.576;8.568;2022-08-03T14:35:50;36.00;42.00
44305;DHT22;30019;50.576;8.568;2022-08-03T14:38:17;36.50;43.30
44305;DHT22;30019;50.576;8.568;2022-08-03T14:40:43;35.90;43.10
44305;DHT22;30019;50.576;8.568;2022-08-03T14:43:09;35.90;43.00
44305;DHT22;30019;50.576;8.568;2022-08-03T14:45:34;36.40;44.00
44305;DHT22;30019;50.576;8.568;2022-08-03T14:48:01;36.40;42.40
44305;DHT22;30019;50.576;8.568;2022-08-03T14:50:26;35.90;42.40
44305;DHT22;30019;50.576;8.568;2022-08-03T14:52:55;35.80;43.60
44305;DHT22;30019;50.576;8.568;2022-08-03T14:55:21;35.60;43.30
44305;DHT22;30019;50.576;8.568;2022-08-03T14:57:46;35.40;43.90
44305;DHT22;30019;50.576;8.568;2022-08-03T15:00:12;35.50;44.20
44305;DHT22;30019;50.576;8.568;2022-08-03T15:02:38;35.70;44.50
44305;DHT22;30019;50.576;8.568;2022-08-03T15:05:04;36.00;43.70
44305;DHT22;30019;50.576;8.568;2022-08-03T15:07:29;35.90;43.30
44305;DHT22;30019;50.576;8.568;2022-08-03T15:09:55;35.60;43.40
44305;DHT22;30019;50.576;8.568;2022-08-03T15:12:21;36.20;42.60
44305;DHT22;30019;50.576;8.568;2022-08-03T15:14:46;36.40;43.70
44305;DHT22;30019;50.576;8.568;2022-08-03T15:17:12;37.20;41.70
44305;DHT22;30019;50.576;8.568;2022-08-03T15:19:37;36.20;42.80
44305;DHT22;30019;50.576;8.568;2022-08-03T15:22:04;35.90;43.40
44305;DHT22;30019;50.576;8.568;2022-08-03T15:24:30;36.00;45.60
44305;DHT22;30019;50.576;8.568;2022-08-03T15:26:55;35.90;44.10
44305;DHT22;30019;50.576;8.568;2022-08-03T15:29:21;36.10;43.60
44305;DHT22;30019;50.576;8.568;2022-08-03T15:31:46;36.30;43.80
44305;DHT22;30019;50.576;8.568;2022-08-03T15:34:12;35.80;44.70
44305;DHT22;30019;50.576;8.568;2022-08-03T15:36:38;35.30;45.50
44305;DHT22;30019;50.576;8.568;2022-08-03T15:39:04;35.20;46.90
44305;DHT22;30019;50.576;8.568;2022-08-03T15:41:30;35.90;46.00
44305;DHT22;30019;50.576;8.568;2022-08-03T15:43:56;36.70;44.40
44305;DHT22;30019;50.576;8.568;2022-08-03T15:46:21;36.10;44.10
44305;DHT22;30019;50.576;8.568;2022-08-03T15:48:47;35.90;44.60
44305;DHT22;30019;50.576;8.568;2022-08-03T15:51:13;36.10;44.00
44305;DHT22;30019;50.576;8.568;2022-08-03T15:53:38;35.90;45.30
44305;DHT22;30019;50.576;8.568;2022-08-03T15:56:04;35.80;44.90
44305;DHT22;30019;50.576;8.568;2022-08-03T15:58:32;36.40;45.10
44305;DHT22;30019;50.576;8.568;2022-08-03T16:00:59;37.90;44.30
44305;DHT22;30019;50.576;8.568;2022-08-03T16:03:25;38.60;42.70
44305;DHT22;30019;50.576;8.568;2022-08-03T16:05:53;39.10;43.30
44305;DHT22;30019;50.576;8.568;2022-08-03T16:08:18;39.60;42.30
44305;DHT22;30019;50.576;8.568;2022-08-03T16:10:45;38.10;43.50
44305;DHT22;30019;50.576;8.568;2022-08-03T16:13:11;38.40;43.60
44305;DHT22;30019;50.576;8.568;2022-08-03T16:15:37;37.80;44.50
44305;DHT22;30019;50.576;8.568;2022-08-03T16:18:04;37.40;46.00
44305;DHT22;30019;50.576;8.568;2022-08-03T16:20:30;37.20;45.90
44305;DHT22;30019;50.576;8.568;2022-08-03T16:22:55;36.70;47.30
44305;DHT22;30019;50.576;8.568;2022-08-03T16:25:21;37.00;47.40
44305;DHT22;30019;50.576;8.568;2022-08-03T16:27:46;37.00;48.70
44305;DHT22;30019;50.576;8.568;2022-08-03T16:30:14;37.00;49.30
44305;DHT22;30019;50.576;8.568;2022-08-03T16:32:41;36.90;49.70
44305;DHT22;30019;50.576;8.568;2022-08-03T16:35:08;36.60;49.90
44305;DHT22;30019;50.576;8.568;2022-08-03T16:37:34;36.20;51.20
44305;DHT22;30019;50.576;8.568;2022-08-03T16:39:59;35.20;52.10
44305;DHT22;30019;50.576;8.568;2022-08-03T16:42:25;34.80;54.60
44305;DHT22;30019;50.576;8.568;2022-08-03T16:44:51;34.80;55.20
44305;DHT22;30019;50.576;8.568;2022-08-03T16:47:16;34.80;55.40
44305;DHT22;30019;50.576;8.568;2022-08-03T16:49:42;34.70;56.30
44305;DHT22;30019;50.576;8.568;2022-08-03T16:52:08;34.00;56.20
44305;DHT22;30019;50.576;8.568;2022-08-03T16:54:33;33.70;57.90
44305;DHT22;30019;50.576;8.568;2022-08-03T16:56:59;33.80;59.50
44305;DHT22;30019;50.576;8.568;2022-08-03T16:59:24;33.80;60.20
44305;DHT22;30019;50.576;8.568;2022-08-03T17:01:50;33.80;63.90
44305;DHT22;30019;50.576;8.568;2022-08-03T17:04:16;33.70;53.10
44305;DHT22;30019;50.576;8.568;2022-08-03T17:06:42;33.80;61.00